sensor_id;sensor_type;location;lat;lon;timestamp;P1;durP1;ratioP1;P2;durP2;ratioP2
80340;SDS011;69656;44.498;0.166;2023-07-20T00:03:10;1.23;;;0.70;;
80340;SDS011;69656;44.498;0.166;2023-07-20T00:08:40;1.63;;;0.63;;
80340;SDS011;69656;44.498;0.166;2023-07-20T00:14:13;0.47;;;0.47;;
80340;SDS011;69656;44.498;0.166;2023-07-20T00:19:44;2.23;;;0.60;;
80340;SDS011;69656;44.498;0.166;2023-07-20T00:25:18;0.40;;;0.40;;
80340;SDS011;69656;44.498;0.166;2023-07-20T00:30:50;1.23;;;0.80;;
80340;SDS011;69656;44.498;0.166;2023-07-20T00:36:23;1.37;;;0.73;;
80340;SDS011;69656;44.498;0.166;2023-07-20T00:41:55;1.37;;;0.63;;
80340;SDS011;69656;44.498;0.166;2023-07-20T00:47:28;0.87;;;0.63;;
80340;SDS011;69656;44.498;0.166;2023-07-20T00:53:02;0.80;;;0.70;;
80340;SDS011;69656;44.498;0.166;2023-07-20T00:58:34;1.37;;;0.67;;
80340;SDS011;69656;44.498;0.166;2023-07-20T01:04:06;1.10;;;0.87;;
80340;SDS011;69656;44.498;0.166;2023-07-20T01:09:39;1.23;;;0.73;;
80340;SDS011;69656;44.498;0.166;2023-07-20T01:15:11;1.60;;;1.03;;
80340;SDS011;69656;44.498;0.166;2023-07-20T01:20:44;1.63;;;0.80;;
80340;SDS011;69656;44.498;0.166;2023-07-20T01:26:22;2.07;;;0.80;;
80340;SDS011;69656;44.498;0.166;2023-07-20T01:31:49;1.17;;;1.07;;
80340;SDS011;69656;44.498;0.166;2023-07-20T01:37:22;2.30;;;0.90;;
80340;SDS011;69656;44.498;0.166;2023-07-20T01:42:53;1.07;;;0.87;;
80340;SDS011;69656;44.498;0.166;2023-07-20T01:48:27;6.90;;;1.30;;
80340;SDS011;69656;44.498;0.166;2023-07-20T01:54:00;2.53;;;1.00;;
80340;SDS011;69656;44.498;0.166;2023-07-20T01:59:32;0.73;;;0.73;;
80340;SDS011;69656;44.498;0.166;2023-07-20T02:05:05;3.67;;;0.87;;
80340;SDS011;69656;44.498;0.166;2023-07-20T02:10:38;1.73;;;1.10;;
80340;SDS011;69656;44.498;0.166;2023-07-20T02:16:11;1.07;;;1.00;;
80340;SDS011;69656;44.498;0.166;2023-07-20T02:21:43;4.03;;;1.23;;
80340;SDS011;69656;44.498;0.166;2023-07-20T02:27:16;2.20;;;1.17;;
80340;SDS011;69656;44.498;0.166;2023-07-20T02:32:49;1.93;;;1.00;;
80340;SDS011;69656;44.498;0.166;2023-07-20T02:38:21;2.97;;;1.10;;
80340;SDS011;69656;44.498;0.166;2023-07-20T02:43:54;1.50;;;1.30;;
80340;SDS011;69656;44.498;0.166;2023-07-20T02:49:28;2.83;;;1.00;;
80340;SDS011;69656;44.498;0.166;2023-07-20T02:55:00;1.77;;;1.67;;
80340;SDS011;69656;44.498;0.166;2023-07-20T03:00:32;1.13;;;1.03;;
80340;SDS011;69656;44.498;0.166;2023-07-20T03:06:05;3.80;;;1.20;;
80340;SDS011;69656;44.498;0.166;2023-07-20T03:11:37;2.30;;;1.43;;
80340;SDS011;69656;44.498;0.166;2023-07-20T03:17:09;1.33;;;1.20;;
80340;SDS011;69656;44.498;0.166;2023-07-20T03:22:41;2.23;;;1.13;;
80340;SDS011;69656;44.498;0.166;2023-07-20T03:28:14;1.20;;;1.10;;
80340;SDS011;69656;44.498;0.166;2023-07-20T03:33:47;1.77;;;1.40;;
80340;SDS011;69656;44.498;0.166;2023-07-20T03:39:20;5.20;;;1.43;;
80340;SDS011;69656;44.498;0.166;2023-07-20T03:44:54;2.07;;;0.87;;
80340;SDS011;69656;44.498;0.166;2023-07-20T03:50:25;2.50;;;1.10;;
80340;SDS011;69656;44.498;0.166;2023-07-20T03:55:57;2.40;;;1.17;;
80340;SDS011;69656;44.498;0.166;2023-07-20T04:01:30;1.30;;;1.20;;
80340;SDS011;69656;44.498;0.166;2023-07-20T04:07:03;4.30;;;1.30;;
80340;SDS011;69656;44.498;0.166;2023-07-20T04:12:36;2.77;;;1.33;;
80340;SDS011;69656;44.498;0.166;2023-07-20T04:18:09;3.40;;;1.70;;
80340;SDS011;69656;44.498;0.166;2023-07-20T04:23:42;3.80;;;1.30;;
80340;SDS011;69656;44.498;0.166;2023-07-20T04:29:14;1.57;;;1.40;;
80340;SDS011;69656;44.498;0.166;2023-07-20T04:34:47;2.10;;;1.20;;
80340;SDS011;69656;44.498;0.166;2023-07-20T04:40:20;2.20;;;1.60;;
80340;SDS011;69656;44.498;0.166;2023-07-20T04:45:53;5.40;;;1.63;;
80340;SDS011;69656;44.498;0.166;2023-07-20T04:51:27;1.73;;;1.33;;
80340;SDS011;69656;44.498;0.166;2023-07-20T04:57:00;3.70;;;1.47;;
80340;SDS011;69656;44.498;0.166;2023-07-20T05:02:32;5.10;;;1.10;;
80340;SDS011;69656;44.498;0.166;2023-07-20T05:08:04;6.03;;;1.80;;
80340;SDS011;69656;44.498;0.166;2023-07-20T05:13:38;3.47;;;1.53;;
80340;SDS011;69656;44.498;0.166;2023-07-20T05:19:11;7.83;;;1.67;;
80340;SDS011;69656;44.498;0.166;2023-07-20T05:24:45;3.27;;;1.40;;
80340;SDS011;69656;44.498;0.166;2023-07-20T05:30:18;3.03;;;1.60;;
80340;SDS011;69656;44.498;0.166;2023-07-20T05:35:50;3.87;;;1.57;;
80340;SDS011;69656;44.498;0.166;2023-07-20T05:41:23;5.40;;;1.40;;
80340;SDS011;69656;44.498;0.166;2023-07-20T05:46:56;1.90;;;1.70;;
80340;SDS011;69656;44.498;0.166;2023-07-20T05:52:28;4.07;;;1.87;;
80340;SDS011;69656;44.498;0.166;2023-07-20T05:58:02;3.03;;;1.67;;
80340;SDS011;69656;44.498;0.166;2023-07-20T06:03:34;3.87;;;1.50;;
80340;SDS011;69656;44.498;0.166;2023-07-20T06:09:06;2.50;;;1.70;;
80340;SDS011;69656;44.498;0.166;2023-07-20T06:14:39;2.03;;;1.93;;
80340;SDS011;69656;44.498;0.166;2023-07-20T06:20:11;3.20;;;1.50;;
80340;SDS011;69656;44.498;0.166;2023-07-20T06:25:44;5.80;;;1.67;;
80340;SDS011;69656;44.498;0.166;2023-07-20T06:31:16;3.90;;;1.67;;
80340;SDS011;69656;44.498;0.166;2023-07-20T06:36:50;1.53;;;1.43;;
80340;SDS011;69656;44.498;0.166;2023-07-20T06:42:23;7.30;;;1.60;;
80340;SDS011;69656;44.498;0.166;2023-07-20T06:47:55;1.70;;;1.57;;
80340;SDS011;69656;44.498;0.166;2023-07-20T06:53:29;5.17;;;1.37;;
80340;SDS011;69656;44.498;0.166;2023-07-20T06:59:02;6.43;;;1.53;;
80340;SDS011;69656;44.498;0.166;2023-07-20T07:04:35;4.40;;;1.57;;
80340;SDS011;69656;44.498;0.166;2023-07-20T07:10:08;1.73;;;1.20;;
80340;SDS011;69656;44.498;0.166;2023-07-20T07:15:40;2.07;;;1.77;;
80340;SDS011;69656;44.498;0.166;2023-07-20T07:21:13;4.67;;;1.50;;
80340;SDS011;69656;44.498;0.166;2023-07-20T07:26:47;3.73;;;1.40;;
80340;SDS011;69656;44.498;0.166;2023-07-20T07:32:19;3.10;;;1.30;;
80340;SDS011;69656;44.498;0.166;2023-07-20T07:37:51;5.00;;;1.30;;
80340;SDS011;69656;44.498;0.166;2023-07-20T07:43:23;1.77;;;1.33;;
80340;SDS011;69656;44.498;0.166;2023-07-20T07:48:56;8.80;;;1.63;;
80340;SDS011;69656;44.498;0.166;2023-07-20T07:54:29;4.67;;;1.30;;
80340;SDS011;69656;44.498;0.166;2023-07-20T08:00:01;1.60;;;1.43;;
80340;SDS011;69656;44.498;0.166;2023-07-20T08:05:34;3.00;;;1.07;;
80340;SDS011;69656;44.498;0.166;2023-07-20T08:11:08;1.73;;;1.17;;
80340;SDS011;69656;44.498;0.166;2023-07-20T08:16:40;2.93;;;1.10;;
80340;SDS011;69656;44.498;0.166;2023-07-20T08:22:13;2.83;;;1.10;;
80340;SDS011;69656;44.498;0.166;2023-07-20T08:27:47;1.90;;;1.13;;
80340;SDS011;69656;44.498;0.166;2023-07-20T08:33:19;2.00;;;1.00;;
80340;SDS011;69656;44.498;0.166;2023-07-20T08:38:52;1.67;;;1.07;;
80340;SDS011;69656;44.498;0.166;2023-07-20T08:44:25;7.37;;;1.03;;
80340;SDS011;69656;44.498;0.166;2023-07-20T08:49:58;3.20;;;1.10;;
80340;SDS011;69656;44.498;0.166;2023-07-20T08:55:32;2.30;;;1.00;;
80340;SDS011;69656;44.498;0.166;2023-07-20T09:01:04;1.43;;;1.17;;
80340;SDS011;69656;44.498;0.166;2023-07-20T09:06:36;2.80;;;1.20;;
80340;SDS011;69656;44.498;0.166;2023-07-20T09:12:13;6.23;;;1.10;;
80340;SDS011;69656;44.498;0.166;2023-07-20T09:17:45;2.57;;;0.97;;
80340;SDS011;69656;44.498;0.166;2023-07-20T09:23:15;1.37;;;0.83;;
80340;SDS011;69656;44.498;0.166;2023-07-20T09:28:49;2.23;;;1.13;;
80340;SDS011;69656;44.498;0.166;2023-07-20T09:34:20;1.70;;;1.60;;
80340;SDS011;69656;44.498;0.166;2023-07-20T09:39:52;1.87;;;0.93;;
80340;SDS011;69656;44.498;0.166;2023-07-20T09:45:28;2.13;;;1.10;;
80340;SDS011;69656;44.498;0.166;2023-07-20T09:50:58;3.40;;;1.40;;
80340;SDS011;69656;44.498;0.166;2023-07-20T09:56:31;2.83;;;1.00;;
80340;SDS011;69656;44.498;0.166;2023-07-20T10:02:04;2.73;;;1.33;;
80340;SDS011;69656;44.498;0.166;2023-07-20T10:07:36;1.20;;;0.87;;
80340;SDS011;69656;44.498;0.166;2023-07-20T10:13:09;1.50;;;1.37;;
80340;SDS011;69656;44.498;0.166;2023-07-20T10:18:46;1.97;;;1.10;;
80340;SDS011;69656;44.498;0.166;2023-07-20T10:24:14;1.70;;;1.27;;
80340;SDS011;69656;44.498;0.166;2023-07-20T10:29:47;3.73;;;1.30;;
80340;SDS011;69656;44.498;0.166;2023-07-20T10:35:20;2.30;;;1.53;;
80340;SDS011;69656;44.498;0.166;2023-07-20T10:40:54;2.80;;;2.03;;
80340;SDS011;69656;44.498;0.166;2023-07-20T10:51:58;4.60;;;1.97;;
80340;SDS011;69656;44.498;0.166;2023-07-20T10:57:30;2.67;;;1.53;;
80340;SDS011;69656;44.498;0.166;2023-07-20T11:03:02;2.33;;;1.43;;
80340;SDS011;69656;44.498;0.166;2023-07-20T11:08:41;2.27;;;1.83;;
80340;SDS011;69656;44.498;0.166;2023-07-20T11:14:07;3.03;;;1.47;;
80340;SDS011;69656;44.498;0.166;2023-07-20T11:19:39;1.80;;;1.40;;
80340;SDS011;69656;44.498;0.166;2023-07-20T11:25:12;2.20;;;1.43;;
80340;SDS011;69656;44.498;0.166;2023-07-20T11:30:45;7.33;;;2.00;;
80340;SDS011;69656;44.498;0.166;2023-07-20T11:36:17;3.10;;;1.33;;
80340;SDS011;69656;44.498;0.166;2023-07-20T11:41:50;5.10;;;2.20;;
80340;SDS011;69656;44.498;0.166;2023-07-20T11:47:22;7.90;;;1.70;;
80340;SDS011;69656;44.498;0.166;2023-07-20T11:52:53;2.03;;;1.70;;
80340;SDS011;69656;44.498;0.166;2023-07-20T11:58:27;3.00;;;1.83;;
80340;SDS011;69656;44.498;0.166;2023-07-20T12:04:00;3.83;;;2.17;;
80340;SDS011;69656;44.498;0.166;2023-07-20T12:09:32;2.77;;;2.10;;
80340;SDS011;69656;44.498;0.166;2023-07-20T12:20:36;5.77;;;2.97;;
80340;SDS011;69656;44.498;0.166;2023-07-20T12:26:09;2.97;;;2.00;;
80340;SDS011;69656;44.498;0.166;2023-07-20T12:31:40;3.87;;;1.90;;
80340;SDS011;69656;44.498;0.166;2023-07-20T12:37:12;2.33;;;2.10;;
80340;SDS011;69656;44.498;0.166;2023-07-20T12:42:45;4.10;;;2.23;;
80340;SDS011;69656;44.498;0.166;2023-07-20T12:48:16;6.47;;;2.33;;
80340;SDS011;69656;44.498;0.166;2023-07-20T12:53:50;3.27;;;1.90;;
80340;SDS011;69656;44.498;0.166;2023-07-20T12:59:23;2.83;;;2.13;;
80340;SDS011;69656;44.498;0.166;2023-07-20T13:04:55;1.30;;;1.20;;
80340;SDS011;69656;44.498;0.166;2023-07-20T13:10:27;2.50;;;1.80;;
80340;SDS011;69656;44.498;0.166;2023-07-20T13:15:59;2.27;;;1.83;;
80340;SDS011;69656;44.498;0.166;2023-07-20T13:21:32;1.73;;;1.50;;
80340;SDS011;69656;44.498;0.166;2023-07-20T13:27:05;4.00;;;1.77;;
80340;SDS011;69656;44.498;0.166;2023-07-20T13:32:37;2.57;;;2.37;;
80340;SDS011;69656;44.498;0.166;2023-07-20T13:38:09;2.23;;;2.07;;
80340;SDS011;69656;44.498;0.166;2023-07-20T13:43:43;3.63;;;1.80;;
80340;SDS011;69656;44.498;0.166;2023-07-20T13:49:16;3.60;;;2.20;;
80340;SDS011;69656;44.498;0.166;2023-07-20T13:54:48;2.90;;;1.97;;
80340;SDS011;69656;44.498;0.166;2023-07-20T14:00:22;5.30;;;2.00;;
80340;SDS011;69656;44.498;0.166;2023-07-20T14:05:53;6.63;;;2.03;;
80340;SDS011;69656;44.498;0.166;2023-07-20T14:11:25;8.20;;;2.10;;
80340;SDS011;69656;44.498;0.166;2023-07-20T14:16:58;3.03;;;1.87;;
80340;SDS011;69656;44.498;0.166;2023-07-20T14:22:31;2.63;;;2.17;;
80340;SDS011;69656;44.498;0.166;2023-07-20T14:28:03;4.43;;;2.47;;
80340;SDS011;69656;44.498;0.166;2023-07-20T14:33:35;4.67;;;2.53;;
80340;SDS011;69656;44.498;0.166;2023-07-20T14:39:07;3.60;;;2.60;;
80340;SDS011;69656;44.498;0.166;2023-07-20T14:44:40;3.27;;;2.67;;
80340;SDS011;69656;44.498;0.166;2023-07-20T14:50:12;4.63;;;2.70;;
80340;SDS011;69656;44.498;0.166;2023-07-20T14:55:46;6.77;;;2.70;;
80340;SDS011;69656;44.498;0.166;2023-07-20T15:01:19;3.27;;;2.57;;
80340;SDS011;69656;44.498;0.166;2023-07-20T15:06:53;3.43;;;2.40;;
80340;SDS011;69656;44.498;0.166;2023-07-20T15:12:27;4.47;;;2.80;;
80340;SDS011;69656;44.498;0.166;2023-07-20T15:17:59;7.53;;;2.60;;
80340;SDS011;69656;44.498;0.166;2023-07-20T15:23:32;4.97;;;2.53;;
80340;SDS011;69656;44.498;0.166;2023-07-20T15:29:06;5.77;;;2.10;;
80340;SDS011;69656;44.498;0.166;2023-07-20T15:34:38;4.97;;;1.87;;
80340;SDS011;69656;44.498;0.166;2023-07-20T15:40:12;3.10;;;2.43;;
80340;SDS011;69656;44.498;0.166;2023-07-20T15:45:46;2.67;;;2.27;;
80340;SDS011;69656;44.498;0.166;2023-07-20T15:51:17;3.67;;;2.37;;
80340;SDS011;69656;44.498;0.166;2023-07-20T15:56:50;2.87;;;2.63;;
80340;SDS011;69656;44.498;0.166;2023-07-20T16:02:22;4.63;;;2.83;;
80340;SDS011;69656;44.498;0.166;2023-07-20T16:07:55;4.90;;;2.70;;
80340;SDS011;69656;44.498;0.166;2023-07-20T16:13:26;3.93;;;2.90;;
80340;SDS011;69656;44.498;0.166;2023-07-20T16:19:00;3.30;;;2.50;;
80340;SDS011;69656;44.498;0.166;2023-07-20T16:24:33;3.30;;;2.53;;
80340;SDS011;69656;44.498;0.166;2023-07-20T16:30:06;5.63;;;3.10;;
80340;SDS011;69656;44.498;0.166;2023-07-20T16:35:39;4.77;;;2.47;;
80340;SDS011;69656;44.498;0.166;2023-07-20T16:41:12;3.70;;;2.43;;
80340;SDS011;69656;44.498;0.166;2023-07-20T16:46:44;3.43;;;2.10;;
80340;SDS011;69656;44.498;0.166;2023-07-20T16:52:17;5.33;;;2.40;;
80340;SDS011;69656;44.498;0.166;2023-07-20T16:57:49;3.93;;;3.60;;
80340;SDS011;69656;44.498;0.166;2023-07-20T17:03:21;2.67;;;2.37;;
80340;SDS011;69656;44.498;0.166;2023-07-20T17:08:54;3.30;;;2.30;;
80340;SDS011;69656;44.498;0.166;2023-07-20T17:14:26;3.87;;;2.57;;
80340;SDS011;69656;44.498;0.166;2023-07-20T17:20:00;2.33;;;2.10;;
80340;SDS011;69656;44.498;0.166;2023-07-20T17:25:32;1.70;;;1.37;;
80340;SDS011;69656;44.498;0.166;2023-07-20T17:31:06;2.07;;;1.83;;
80340;SDS011;69656;44.498;0.166;2023-07-20T17:36:38;3.40;;;1.33;;
80340;SDS011;69656;44.498;0.166;2023-07-20T17:42:11;2.30;;;1.50;;
80340;SDS011;69656;44.498;0.166;2023-07-20T17:47:42;4.20;;;1.30;;
80340;SDS011;69656;44.498;0.166;2023-07-20T17:53:15;1.87;;;1.37;;
80340;SDS011;69656;44.498;0.166;2023-07-20T17:58:49;2.10;;;1.40;;
80340;SDS011;69656;44.498;0.166;2023-07-20T18:04:20;1.57;;;1.20;;
80340;SDS011;69656;44.498;0.166;2023-07-20T18:09:53;3.40;;;1.37;;
80340;SDS011;69656;44.498;0.166;2023-07-20T18:15:25;2.47;;;0.93;;
80340;SDS011;69656;44.498;0.166;2023-07-20T18:20:58;2.33;;;1.03;;
80340;SDS011;69656;44.498;0.166;2023-07-20T18:26:32;1.40;;;1.20;;
80340;SDS011;69656;44.498;0.166;2023-07-20T18:32:05;3.57;;;0.83;;
80340;SDS011;69656;44.498;0.166;2023-07-20T18:37:38;1.10;;;0.83;;
80340;SDS011;69656;44.498;0.166;2023-07-20T18:43:10;3.27;;;1.03;;
80340;SDS011;69656;44.498;0.166;2023-07-20T18:48:42;2.20;;;1.33;;
80340;SDS011;69656;44.498;0.166;2023-07-20T18:54:16;1.07;;;0.80;;
80340;SDS011;69656;44.498;0.166;2023-07-20T18:59:48;2.53;;;1.13;;
80340;SDS011;69656;44.498;0.166;2023-07-20T19:05:21;4.53;;;1.00;;
80340;SDS011;69656;44.498;0.166;2023-07-20T19:10:58;0.97;;;0.97;;
80340;SDS011;69656;44.498;0.166;2023-07-20T19:16:28;2.80;;;1.40;;
80340;SDS011;69656;44.498;0.166;2023-07-20T19:22:00;1.83;;;1.20;;
80340;SDS011;69656;44.498;0.166;2023-07-20T19:27:33;2.87;;;1.37;;
80340;SDS011;69656;44.498;0.166;2023-07-20T19:33:05;2.57;;;1.13;;
80340;SDS011;69656;44.498;0.166;2023-07-20T19:38:38;1.63;;;1.03;;
80340;SDS011;69656;44.498;0.166;2023-07-20T19:44:12;2.37;;;1.17;;
80340;SDS011;69656;44.498;0.166;2023-07-20T19:49:44;1.90;;;1.00;;
80340;SDS011;69656;44.498;0.166;2023-07-20T19:55:16;1.83;;;1.10;;
80340;SDS011;69656;44.498;0.166;2023-07-20T20:00:49;2.40;;;1.37;;
80340;SDS011;69656;44.498;0.166;2023-07-20T20:06:22;2.30;;;1.80;;
80340;SDS011;69656;44.498;0.166;2023-07-20T20:11:55;2.50;;;1.20;;
80340;SDS011;69656;44.498;0.166;2023-07-20T20:17:29;3.33;;;1.87;;
80340;SDS011;69656;44.498;0.166;2023-07-20T20:23:01;2.10;;;1.30;;
80340;SDS011;69656;44.498;0.166;2023-07-20T20:28:33;1.57;;;1.20;;
80340;SDS011;69656;44.498;0.166;2023-07-20T20:34:04;2.50;;;1.30;;
80340;SDS011;69656;44.498;0.166;2023-07-20T20:39:38;2.67;;;1.37;;
80340;SDS011;69656;44.498;0.166;2023-07-20T20:45:10;3.50;;;1.20;;
80340;SDS011;69656;44.498;0.166;2023-07-20T20:50:43;2.67;;;1.03;;
80340;SDS011;69656;44.498;0.166;2023-07-20T20:56:17;3.87;;;1.33;;
80340;SDS011;69656;44.498;0.166;2023-07-20T21:01:50;1.30;;;1.17;;
80340;SDS011;69656;44.498;0.166;2023-07-20T21:07:23;1.73;;;0.80;;
80340;SDS011;69656;44.498;0.166;2023-07-20T21:12:56;1.43;;;1.00;;
80340;SDS011;69656;44.498;0.166;2023-07-20T21:18:27;4.10;;;1.33;;
80340;SDS011;69656;44.498;0.166;2023-07-20T21:24:01;3.13;;;1.43;;
80340;SDS011;69656;44.498;0.166;2023-07-20T21:29:33;1.37;;;0.90;;
80340;SDS011;69656;44.498;0.166;2023-07-20T21:35:05;1.33;;;0.80;;
80340;SDS011;69656;44.498;0.166;2023-07-20T21:40:37;2.43;;;0.93;;
80340;SDS011;69656;44.498;0.166;2023-07-20T21:46:10;4.80;;;1.60;;
80340;SDS011;69656;44.498;0.166;2023-07-20T21:51:42;2.33;;;1.00;;
80340;SDS011;69656;44.498;0.166;2023-07-20T21:57:14;2.70;;;1.47;;
80340;SDS011;69656;44.498;0.166;2023-07-20T22:02:46;1.73;;;1.03;;
80340;SDS011;69656;44.498;0.166;2023-07-20T22:08:18;3.47;;;1.43;;
80340;SDS011;69656;44.498;0.166;2023-07-20T22:13:50;1.30;;;1.20;;
80340;SDS011;69656;44.498;0.166;2023-07-20T22:19:22;7.70;;;1.30;;
80340;SDS011;69656;44.498;0.166;2023-07-20T22:24:54;2.50;;;1.50;;
80340;SDS011;69656;44.498;0.166;2023-07-20T22:30:28;4.50;;;1.60;;
80340;SDS011;69656;44.498;0.166;2023-07-20T22:36:01;1.17;;;1.07;;
80340;SDS011;69656;44.498;0.166;2023-07-20T22:41:35;3.60;;;1.27;;
80340;SDS011;69656;44.498;0.166;2023-07-20T22:47:08;2.43;;;1.67;;
80340;SDS011;69656;44.498;0.166;2023-07-20T22:52:42;4.63;;;1.53;;
80340;SDS011;69656;44.498;0.166;2023-07-20T22:58:13;5.77;;;1.70;;
80340;SDS011;69656;44.498;0.166;2023-07-20T23:03:45;1.57;;;1.20;;
80340;SDS011;69656;44.498;0.166;2023-07-20T23:09:17;2.50;;;1.90;;
80340;SDS011;69656;44.498;0.166;2023-07-20T23:14:50;6.33;;;1.70;;
80340;SDS011;69656;44.498;0.166;2023-07-20T23:20:22;3.10;;;1.60;;
80340;SDS011;69656;44.498;0.166;2023-07-20T23:25:56;6.03;;;1.70;;
80340;SDS011;69656;44.498;0.166;2023-07-20T23:31:29;2.27;;;1.30;;
80340;SDS011;69656;44.498;0.166;2023-07-20T23:37:02;2.10;;;1.17;;
80340;SDS011;69656;44.498;0.166;2023-07-20T23:42:35;4.40;;;1.60;;
80340;SDS011;69656;44.498;0.166;2023-07-20T23:48:08;3.87;;;1.37;;
80340;SDS011;69656;44.498;0.166;2023-07-20T23:53:41;5.93;;;1.60;;
80340;SDS011;69656;44.498;0.166;2023-07-20T23:59:14;3.93;;;1.40;;
